sensor_id;sensor_type;location;lat;lon;timestamp;temperature;humidity
37158;DHT22;23050;51.776;22.638;2024-02-26T00:01:23;9.10;99.90
37158;DHT22;23050;51.776;22.638;2024-02-26T00:03:49;9.10;99.90
37158;DHT22;23050;51.776;22.638;2024-02-26T00:06:15;9.10;99.90
37158;DHT22;23050;51.776;22.638;2024-02-26T00:08:41;9.10;99.90
37158;DHT22;23050;51.776;22.638;2024-02-26T00:11:06;9.10;99.90
37158;DHT22;23050;51.776;22.638;2024-02-26T00:13:32;9.20;99.90
37158;DHT22;23050;51.776;22.638;2024-02-26T00:15:58;9.20;99.90
37158;DHT22;23050;51.776;22.638;2024-02-26T00:18:23;9.20;99.90
37158;DHT22;23050;51.776;22.638;2024-02-26T00:20:49;9.30;99.90
37158;DHT22;23050;51.776;22.638;2024-02-26T00:23:15;9.20;99.90
37158;DHT22;23050;51.776;22.638;2024-02-26T00:25:41;9.20;99.90
37158;DHT22;23050;51.776;22.638;2024-02-26T00:28:09;9.30;99.90
37158;DHT22;23050;51.776;22.638;2024-02-26T00:30:35;9.20;99.90
37158;DHT22;23050;51.776;22.638;2024-02-26T00:33:01;9.30;99.90
37158;DHT22;23050;51.776;22.638;2024-02-26T00:35:27;9.20;99.90
37158;DHT22;23050;51.776;22.638;2024-02-26T00:37:53;9.30;99.90
37158;DHT22;23050;51.776;22.638;2024-02-26T00:40:18;9.20;99.90
37158;DHT22;23050;51.776;22.638;2024-02-26T00:42:44;9.20;99.90
37158;DHT22;23050;51.776;22.638;2024-02-26T00:45:14;9.20;99.90
37158;DHT22;23050;51.776;22.638;2024-02-26T00:47:41;9.20;99.90
37158;DHT22;23050;51.776;22.638;2024-02-26T00:50:08;9.20;99.90
37158;DHT22;23050;51.776;22.638;2024-02-26T00:52:34;9.20;99.90
37158;DHT22;23050;51.776;22.638;2024-02-26T00:55:00;9.10;99.90
37158;DHT22;23050;51.776;22.638;2024-02-26T00:57:25;9.20;99.90
37158;DHT22;23050;51.776;22.638;2024-02-26T00:59:51;9.20;99.90
37158;DHT22;23050;51.776;22.638;2024-02-26T01:02:17;9.20;99.90
37158;DHT22;23050;51.776;22.638;2024-02-26T01:04:42;9.20;99.90
37158;DHT22;23050;51.776;22.638;2024-02-26T01:07:09;9.30;99.90
37158;DHT22;23050;51.776;22.638;2024-02-26T01:09:34;9.20;99.90
37158;DHT22;23050;51.776;22.638;2024-02-26T01:12:00;9.30;99.90
37158;DHT22;23050;51.776;22.638;2024-02-26T01:14:28;9.30;99.90
37158;DHT22;23050;51.776;22.638;2024-02-26T01:16:53;9.30;99.90
37158;DHT22;23050;51.776;22.638;2024-02-26T01:19:19;9.20;99.90
37158;DHT22;23050;51.776;22.638;2024-02-26T01:21:45;9.30;99.90
37158;DHT22;23050;51.776;22.638;2024-02-26T01:24:10;9.20;99.90
37158;DHT22;23050;51.776;22.638;2024-02-26T01:26:36;9.20;99.90
37158;DHT22;23050;51.776;22.638;2024-02-26T01:29:02;9.10;99.90
37158;DHT22;23050;51.776;22.638;2024-02-26T01:31:27;9.10;99.90
37158;DHT22;23050;51.776;22.638;2024-02-26T01:33:53;9.10;99.90
37158;DHT22;23050;51.776;22.638;2024-02-26T01:36:18;9.20;99.90
37158;DHT22;23050;51.776;22.638;2024-02-26T01:38:44;9.10;99.90
37158;DHT22;23050;51.776;22.638;2024-02-26T01:41:10;9.10;99.90
37158;DHT22;23050;51.776;22.638;2024-02-26T01:43:35;9.20;99.90
37158;DHT22;23050;51.776;22.638;2024-02-26T01:46:01;9.10;99.90
37158;DHT22;23050;51.776;22.638;2024-02-26T01:48:27;9.10;99.90
37158;DHT22;23050;51.776;22.638;2024-02-26T01:50:53;9.10;99.90
37158;DHT22;23050;51.776;22.638;2024-02-26T01:53:19;9.10;99.90
37158;DHT22;23050;51.776;22.638;2024-02-26T01:55:45;9.10;99.90
37158;DHT22;23050;51.776;22.638;2024-02-26T01:58:11;9.10;99.90
37158;DHT22;23050;51.776;22.638;2024-02-26T02:00:37;9.10;99.90
37158;DHT22;23050;51.776;22.638;2024-02-26T02:03:04;9.10;99.90
37158;DHT22;23050;51.776;22.638;2024-02-26T02:05:30;9.10;99.90
37158;DHT22;23050;51.776;22.638;2024-02-26T02:07:57;9.10;99.90
37158;DHT22;23050;51.776;22.638;2024-02-26T02:10:22;9.00;99.90
37158;DHT22;23050;51.776;22.638;2024-02-26T02:12:50;9.00;99.90
37158;DHT22;23050;51.776;22.638;2024-02-26T02:15:16;9.00;99.90
37158;DHT22;23050;51.776;22.638;2024-02-26T02:17:42;9.00;99.90
37158;DHT22;23050;51.776;22.638;2024-02-26T02:20:09;9.00;99.90
37158;DHT22;23050;51.776;22.638;2024-02-26T02:22:35;9.00;99.90
37158;DHT22;23050;51.776;22.638;2024-02-26T02:25:00;9.00;99.90
37158;DHT22;23050;51.776;22.638;2024-02-26T02:27:27;9.00;99.90
37158;DHT22;23050;51.776;22.638;2024-02-26T02:29:53;9.00;99.90
37158;DHT22;23050;51.776;22.638;2024-02-26T02:32:19;9.00;99.90
37158;DHT22;23050;51.776;22.638;2024-02-26T02:34:45;9.00;99.90
37158;DHT22;23050;51.776;22.638;2024-02-26T02:37:11;9.00;99.90
37158;DHT22;23050;51.776;22.638;2024-02-26T02:39:37;9.00;99.90
37158;DHT22;23050;51.776;22.638;2024-02-26T02:42:03;9.00;99.90
37158;DHT22;23050;51.776;22.638;2024-02-26T02:44:29;9.00;99.90
37158;DHT22;23050;51.776;22.638;2024-02-26T02:46:54;9.00;99.90
37158;DHT22;23050;51.776;22.638;2024-02-26T02:49:20;9.00;99.90
37158;DHT22;23050;51.776;22.638;2024-02-26T02:51:46;9.00;99.90
37158;DHT22;23050;51.776;22.638;2024-02-26T02:54:11;9.00;99.90
37158;DHT22;23050;51.776;22.638;2024-02-26T02:56:37;9.00;99.90
37158;DHT22;23050;51.776;22.638;2024-02-26T02:59:03;9.00;99.90
37158;DHT22;23050;51.776;22.638;2024-02-26T03:01:28;8.90;99.90
37158;DHT22;23050;51.776;22.638;2024-02-26T03:03:54;8.90;99.90
37158;DHT22;23050;51.776;22.638;2024-02-26T03:06:20;8.90;99.90
37158;DHT22;23050;51.776;22.638;2024-02-26T03:08:46;8.90;99.90
37158;DHT22;23050;51.776;22.638;2024-02-26T03:11:15;8.90;99.90
37158;DHT22;23050;51.776;22.638;2024-02-26T03:13:41;8.90;99.90
37158;DHT22;23050;51.776;22.638;2024-02-26T03:16:07;8.90;99.90
37158;DHT22;23050;51.776;22.638;2024-02-26T03:18:32;8.90;99.90
37158;DHT22;23050;51.776;22.638;2024-02-26T03:20:58;8.80;99.90
37158;DHT22;23050;51.776;22.638;2024-02-26T03:23:23;8.90;99.90
37158;DHT22;23050;51.776;22.638;2024-02-26T03:25:49;8.80;99.90
37158;DHT22;23050;51.776;22.638;2024-02-26T03:28:15;8.80;99.90
37158;DHT22;23050;51.776;22.638;2024-02-26T03:30:41;8.80;99.90
37158;DHT22;23050;51.776;22.638;2024-02-26T03:33:06;8.80;99.90
37158;DHT22;23050;51.776;22.638;2024-02-26T03:35:32;8.80;99.90
37158;DHT22;23050;51.776;22.638;2024-02-26T03:37:57;8.80;99.90
37158;DHT22;23050;51.776;22.638;2024-02-26T03:40:23;8.80;99.90
37158;DHT22;23050;51.776;22.638;2024-02-26T03:42:49;8.80;99.90
37158;DHT22;23050;51.776;22.638;2024-02-26T03:45:16;8.80;99.90
37158;DHT22;23050;51.776;22.638;2024-02-26T03:47:41;8.80;99.90
37158;DHT22;23050;51.776;22.638;2024-02-26T03:50:07;8.80;99.90
37158;DHT22;23050;51.776;22.638;2024-02-26T03:52:33;8.80;99.90
37158;DHT22;23050;51.776;22.638;2024-02-26T03:54:59;8.80;99.90
37158;DHT22;23050;51.776;22.638;2024-02-26T03:57:25;8.80;99.90
37158;DHT22;23050;51.776;22.638;2024-02-26T03:59:51;8.80;99.90
37158;DHT22;23050;51.776;22.638;2024-02-26T04:02:16;8.90;99.90
37158;DHT22;23050;51.776;22.638;2024-02-26T04:04:42;8.80;99.90
37158;DHT22;23050;51.776;22.638;2024-02-26T04:07:08;8.80;99.90
37158;DHT22;23050;51.776;22.638;2024-02-26T04:09:33;8.80;99.90
37158;DHT22;23050;51.776;22.638;2024-02-26T04:11:59;8.80;99.90
37158;DHT22;23050;51.776;22.638;2024-02-26T04:14:25;8.80;99.90
37158;DHT22;23050;51.776;22.638;2024-02-26T04:16:51;8.80;99.90
37158;DHT22;23050;51.776;22.638;2024-02-26T04:19:19;8.80;99.90
37158;DHT22;23050;51.776;22.638;2024-02-26T04:21:45;8.80;99.90
37158;DHT22;23050;51.776;22.638;2024-02-26T04:24:11;8.80;99.90
37158;DHT22;23050;51.776;22.638;2024-02-26T04:26:37;8.80;99.90
37158;DHT22;23050;51.776;22.638;2024-02-26T04:29:02;8.90;99.90
37158;DHT22;23050;51.776;22.638;2024-02-26T04:31:28;8.80;99.90
37158;DHT22;23050;51.776;22.638;2024-02-26T04:33:54;8.80;99.90
37158;DHT22;23050;51.776;22.638;2024-02-26T04:36:19;8.70;99.90
37158;DHT22;23050;51.776;22.638;2024-02-26T04:38:45;8.70;99.90
37158;DHT22;23050;51.776;22.638;2024-02-26T04:41:11;8.70;99.90
37158;DHT22;23050;51.776;22.638;2024-02-26T04:43:37;8.70;99.90
37158;DHT22;23050;51.776;22.638;2024-02-26T04:46:07;8.70;99.90
37158;DHT22;23050;51.776;22.638;2024-02-26T04:48:34;8.70;99.90
37158;DHT22;23050;51.776;22.638;2024-02-26T04:51:00;8.60;99.90
37158;DHT22;23050;51.776;22.638;2024-02-26T04:53:25;8.60;99.90
37158;DHT22;23050;51.776;22.638;2024-02-26T04:55:51;8.60;99.90
37158;DHT22;23050;51.776;22.638;2024-02-26T04:58:17;8.60;99.90
37158;DHT22;23050;51.776;22.638;2024-02-26T05:00:43;8.60;99.90
37158;DHT22;23050;51.776;22.638;2024-02-26T05:03:09;8.60;99.90
37158;DHT22;23050;51.776;22.638;2024-02-26T05:05:38;8.60;99.90
37158;DHT22;23050;51.776;22.638;2024-02-26T05:08:04;8.60;99.90
37158;DHT22;23050;51.776;22.638;2024-02-26T05:10:29;8.50;99.90
37158;DHT22;23050;51.776;22.638;2024-02-26T05:12:55;8.60;99.90
37158;DHT22;23050;51.776;22.638;2024-02-26T05:15:21;8.60;99.90
37158;DHT22;23050;51.776;22.638;2024-02-26T05:17:46;8.60;99.90
37158;DHT22;23050;51.776;22.638;2024-02-26T05:20:12;8.50;99.90
37158;DHT22;23050;51.776;22.638;2024-02-26T05:22:38;8.50;99.90
37158;DHT22;23050;51.776;22.638;2024-02-26T05:25:04;8.50;99.90
37158;DHT22;23050;51.776;22.638;2024-02-26T05:27:29;8.50;99.90
37158;DHT22;23050;51.776;22.638;2024-02-26T05:29:55;8.60;99.90
37158;DHT22;23050;51.776;22.638;2024-02-26T05:32:22;8.60;99.90
37158;DHT22;23050;51.776;22.638;2024-02-26T05:34:47;8.60;99.90
37158;DHT22;23050;51.776;22.638;2024-02-26T05:37:13;8.60;99.90
37158;DHT22;23050;51.776;22.638;2024-02-26T05:39:38;8.60;99.90
37158;DHT22;23050;51.776;22.638;2024-02-26T05:42:04;8.50;99.90
37158;DHT22;23050;51.776;22.638;2024-02-26T05:44:30;8.50;99.90
37158;DHT22;23050;51.776;22.638;2024-02-26T05:46:56;8.60;99.90
37158;DHT22;23050;51.776;22.638;2024-02-26T05:49:24;8.50;99.90
37158;DHT22;23050;51.776;22.638;2024-02-26T05:51:50;8.60;99.90
37158;DHT22;23050;51.776;22.638;2024-02-26T05:54:16;8.60;99.90
37158;DHT22;23050;51.776;22.638;2024-02-26T05:56:41;8.60;99.90
37158;DHT22;23050;51.776;22.638;2024-02-26T05:59:08;8.60;99.90
37158;DHT22;23050;51.776;22.638;2024-02-26T06:01:33;8.60;99.90
37158;DHT22;23050;51.776;22.638;2024-02-26T06:03:59;8.60;99.90
37158;DHT22;23050;51.776;22.638;2024-02-26T06:06:25;8.60;99.90
37158;DHT22;23050;51.776;22.638;2024-02-26T06:08:51;8.70;99.90
37158;DHT22;23050;51.776;22.638;2024-02-26T06:11:16;8.60;99.90
37158;DHT22;23050;51.776;22.638;2024-02-26T06:13:42;8.60;99.90
37158;DHT22;23050;51.776;22.638;2024-02-26T06:16:10;8.60;99.90
37158;DHT22;23050;51.776;22.638;2024-02-26T06:18:36;8.70;99.90
37158;DHT22;23050;51.776;22.638;2024-02-26T06:21:02;8.60;99.90
37158;DHT22;23050;51.776;22.638;2024-02-26T06:23:28;8.70;99.90
37158;DHT22;23050;51.776;22.638;2024-02-26T06:25:54;8.70;99.90
37158;DHT22;23050;51.776;22.638;2024-02-26T06:28:19;8.70;99.90
37158;DHT22;23050;51.776;22.638;2024-02-26T06:30:45;8.70;99.90
37158;DHT22;23050;51.776;22.638;2024-02-26T06:33:11;8.70;99.90
37158;DHT22;23050;51.776;22.638;2024-02-26T06:35:38;8.70;99.90
37158;DHT22;23050;51.776;22.638;2024-02-26T06:38:03;8.70;99.90
37158;DHT22;23050;51.776;22.638;2024-02-26T06:40:30;8.80;99.90
37158;DHT22;23050;51.776;22.638;2024-02-26T06:42:55;8.80;99.90
37158;DHT22;23050;51.776;22.638;2024-02-26T06:45:21;8.80;99.90
37158;DHT22;23050;51.776;22.638;2024-02-26T06:47:47;8.80;99.90
37158;DHT22;23050;51.776;22.638;2024-02-26T06:50:13;8.80;99.90
37158;DHT22;23050;51.776;22.638;2024-02-26T06:52:44;8.90;99.90
37158;DHT22;23050;51.776;22.638;2024-02-26T06:55:09;8.90;99.90
37158;DHT22;23050;51.776;22.638;2024-02-26T06:57:35;9.00;99.90
37158;DHT22;23050;51.776;22.638;2024-02-26T07:00:00;9.00;99.90
37158;DHT22;23050;51.776;22.638;2024-02-26T07:02:29;9.10;99.90
37158;DHT22;23050;51.776;22.638;2024-02-26T07:04:54;9.10;99.90
37158;DHT22;23050;51.776;22.638;2024-02-26T07:07:21;9.10;99.90
37158;DHT22;23050;51.776;22.638;2024-02-26T07:09:49;9.20;99.90
37158;DHT22;23050;51.776;22.638;2024-02-26T07:12:14;9.30;99.90
37158;DHT22;23050;51.776;22.638;2024-02-26T07:14:41;9.50;99.90
37158;DHT22;23050;51.776;22.638;2024-02-26T07:17:07;9.70;99.90
37158;DHT22;23050;51.776;22.638;2024-02-26T07:19:34;9.60;99.90
37158;DHT22;23050;51.776;22.638;2024-02-26T07:21:59;9.60;99.90
37158;DHT22;23050;51.776;22.638;2024-02-26T07:24:27;9.60;99.90
37158;DHT22;23050;51.776;22.638;2024-02-26T07:26:53;9.70;99.90
37158;DHT22;23050;51.776;22.638;2024-02-26T07:29:22;9.80;99.90
37158;DHT22;23050;51.776;22.638;2024-02-26T07:31:47;10.30;99.90
37158;DHT22;23050;51.776;22.638;2024-02-26T07:34:13;11.10;99.90
37158;DHT22;23050;51.776;22.638;2024-02-26T07:36:39;11.40;99.90
37158;DHT22;23050;51.776;22.638;2024-02-26T07:39:05;11.50;99.90
37158;DHT22;23050;51.776;22.638;2024-02-26T07:41:31;11.90;99.90
37158;DHT22;23050;51.776;22.638;2024-02-26T07:43:56;12.40;99.90
37158;DHT22;23050;51.776;22.638;2024-02-26T07:46:22;12.50;99.90
37158;DHT22;23050;51.776;22.638;2024-02-26T07:48:48;12.40;99.90
37158;DHT22;23050;51.776;22.638;2024-02-26T07:51:13;12.30;99.90
37158;DHT22;23050;51.776;22.638;2024-02-26T07:53:40;12.20;99.90
37158;DHT22;23050;51.776;22.638;2024-02-26T07:56:05;11.80;99.90
37158;DHT22;23050;51.776;22.638;2024-02-26T07:58:32;11.50;99.90
37158;DHT22;23050;51.776;22.638;2024-02-26T08:00:58;11.20;99.90
37158;DHT22;23050;51.776;22.638;2024-02-26T08:03:24;10.90;99.90
37158;DHT22;23050;51.776;22.638;2024-02-26T08:05:51;10.60;99.90
37158;DHT22;23050;51.776;22.638;2024-02-26T08:08:16;10.50;99.90
37158;DHT22;23050;51.776;22.638;2024-02-26T08:10:42;10.40;99.90
37158;DHT22;23050;51.776;22.638;2024-02-26T08:13:08;10.40;99.90
37158;DHT22;23050;51.776;22.638;2024-02-26T08:15:35;10.40;99.90
37158;DHT22;23050;51.776;22.638;2024-02-26T08:18:03;10.60;99.90
37158;DHT22;23050;51.776;22.638;2024-02-26T08:20:30;10.70;99.90
37158;DHT22;23050;51.776;22.638;2024-02-26T08:22:56;10.90;99.90
37158;DHT22;23050;51.776;22.638;2024-02-26T08:25:22;11.20;99.90
37158;DHT22;23050;51.776;22.638;2024-02-26T08:27:47;11.50;99.90
37158;DHT22;23050;51.776;22.638;2024-02-26T08:30:14;11.50;99.90
37158;DHT22;23050;51.776;22.638;2024-02-26T08:32:45;11.30;99.90
37158;DHT22;23050;51.776;22.638;2024-02-26T08:35:11;11.20;99.90
37158;DHT22;23050;51.776;22.638;2024-02-26T08:37:37;11.20;99.90
37158;DHT22;23050;51.776;22.638;2024-02-26T08:40:02;11.20;99.90
37158;DHT22;23050;51.776;22.638;2024-02-26T08:42:29;11.30;99.90
37158;DHT22;23050;51.776;22.638;2024-02-26T08:44:55;11.30;99.90
37158;DHT22;23050;51.776;22.638;2024-02-26T08:47:20;11.40;99.90
37158;DHT22;23050;51.776;22.638;2024-02-26T08:49:46;11.60;99.90
37158;DHT22;23050;51.776;22.638;2024-02-26T08:52:12;12.10;99.90
37158;DHT22;23050;51.776;22.638;2024-02-26T08:54:38;12.90;99.90
37158;DHT22;23050;51.776;22.638;2024-02-26T08:57:04;12.90;99.90
37158;DHT22;23050;51.776;22.638;2024-02-26T08:59:31;12.60;99.90
37158;DHT22;23050;51.776;22.638;2024-02-26T09:01:56;12.50;99.90
37158;DHT22;23050;51.776;22.638;2024-02-26T09:04:22;12.30;99.90
37158;DHT22;23050;51.776;22.638;2024-02-26T09:06:48;12.20;99.90
37158;DHT22;23050;51.776;22.638;2024-02-26T09:09:14;12.10;99.90
37158;DHT22;23050;51.776;22.638;2024-02-26T09:11:40;12.00;99.90
37158;DHT22;23050;51.776;22.638;2024-02-26T09:14:05;12.00;99.90
37158;DHT22;23050;51.776;22.638;2024-02-26T09:16:31;11.80;99.90
37158;DHT22;23050;51.776;22.638;2024-02-26T09:18:57;11.70;99.90
37158;DHT22;23050;51.776;22.638;2024-02-26T09:21:23;11.50;99.90
37158;DHT22;23050;51.776;22.638;2024-02-26T09:23:50;11.40;99.90
37158;DHT22;23050;51.776;22.638;2024-02-26T09:26:16;11.50;99.90
37158;DHT22;23050;51.776;22.638;2024-02-26T09:28:42;11.60;99.90
37158;DHT22;23050;51.776;22.638;2024-02-26T09:31:08;12.00;99.90
37158;DHT22;23050;51.776;22.638;2024-02-26T09:33:35;12.40;99.90
37158;DHT22;23050;51.776;22.638;2024-02-26T09:36:01;12.80;99.90
37158;DHT22;23050;51.776;22.638;2024-02-26T09:38:27;12.80;99.90
37158;DHT22;23050;51.776;22.638;2024-02-26T09:40:53;12.70;99.90
37158;DHT22;23050;51.776;22.638;2024-02-26T09:43:21;12.40;99.90
37158;DHT22;23050;51.776;22.638;2024-02-26T09:45:50;12.30;99.90
37158;DHT22;23050;51.776;22.638;2024-02-26T09:48:17;12.40;99.90
37158;DHT22;23050;51.776;22.638;2024-02-26T09:50:43;12.50;99.90
37158;DHT22;23050;51.776;22.638;2024-02-26T09:53:11;12.70;99.90
37158;DHT22;23050;51.776;22.638;2024-02-26T09:55:37;12.90;99.90
37158;DHT22;23050;51.776;22.638;2024-02-26T09:58:05;13.10;99.90
37158;DHT22;23050;51.776;22.638;2024-02-26T10:00:31;13.10;99.90
37158;DHT22;23050;51.776;22.638;2024-02-26T10:03:04;13.10;99.90
37158;DHT22;23050;51.776;22.638;2024-02-26T10:05:31;13.00;99.90
37158;DHT22;23050;51.776;22.638;2024-02-26T10:07:58;12.80;99.90
37158;DHT22;23050;51.776;22.638;2024-02-26T10:10:25;12.60;99.90
37158;DHT22;23050;51.776;22.638;2024-02-26T10:12:52;12.40;99.90
37158;DHT22;23050;51.776;22.638;2024-02-26T10:15:18;12.30;99.90
37158;DHT22;23050;51.776;22.638;2024-02-26T10:17:44;12.20;99.90
37158;DHT22;23050;51.776;22.638;2024-02-26T10:20:17;12.10;99.90
37158;DHT22;23050;51.776;22.638;2024-02-26T10:22:45;12.20;99.90
37158;DHT22;23050;51.776;22.638;2024-02-26T10:25:11;12.20;99.90
37158;DHT22;23050;51.776;22.638;2024-02-26T10:27:36;12.20;99.90
37158;DHT22;23050;51.776;22.638;2024-02-26T10:30:03;12.20;99.90
37158;DHT22;23050;51.776;22.638;2024-02-26T10:32:30;12.10;99.90
37158;DHT22;23050;51.776;22.638;2024-02-26T10:34:56;12.10;99.90
37158;DHT22;23050;51.776;22.638;2024-02-26T10:37:23;12.10;99.90
37158;DHT22;23050;51.776;22.638;2024-02-26T10:39:48;12.10;99.90
37158;DHT22;23050;51.776;22.638;2024-02-26T10:42:14;12.00;99.90
37158;DHT22;23050;51.776;22.638;2024-02-26T10:44:41;12.00;99.90
37158;DHT22;23050;51.776;22.638;2024-02-26T10:47:08;11.90;99.90
37158;DHT22;23050;51.776;22.638;2024-02-26T10:49:35;11.80;99.90
37158;DHT22;23050;51.776;22.638;2024-02-26T10:52:01;11.70;99.90
37158;DHT22;23050;51.776;22.638;2024-02-26T10:54:29;11.60;99.90
37158;DHT22;23050;51.776;22.638;2024-02-26T10:56:59;11.50;99.90
37158;DHT22;23050;51.776;22.638;2024-02-26T10:59:24;11.40;99.90
37158;DHT22;23050;51.776;22.638;2024-02-26T11:01:50;11.40;99.90
37158;DHT22;23050;51.776;22.638;2024-02-26T11:04:16;11.30;99.90
37158;DHT22;23050;51.776;22.638;2024-02-26T11:06:44;11.30;99.90
37158;DHT22;23050;51.776;22.638;2024-02-26T11:09:12;11.30;99.90
37158;DHT22;23050;51.776;22.638;2024-02-26T11:11:41;11.30;99.90
37158;DHT22;23050;51.776;22.638;2024-02-26T11:14:09;11.30;99.90
37158;DHT22;23050;51.776;22.638;2024-02-26T11:16:35;11.40;99.90
37158;DHT22;23050;51.776;22.638;2024-02-26T11:19:03;11.50;99.90
37158;DHT22;23050;51.776;22.638;2024-02-26T11:21:29;11.60;99.90
37158;DHT22;23050;51.776;22.638;2024-02-26T11:24:12;11.70;99.90
37158;DHT22;23050;51.776;22.638;2024-02-26T11:26:48;11.90;99.90
37158;DHT22;23050;51.776;22.638;2024-02-26T11:29:20;12.00;99.90
37158;DHT22;23050;51.776;22.638;2024-02-26T11:31:47;12.30;99.90
37158;DHT22;23050;51.776;22.638;2024-02-26T11:34:13;12.30;99.90
37158;DHT22;23050;51.776;22.638;2024-02-26T11:36:38;12.40;99.90
37158;DHT22;23050;51.776;22.638;2024-02-26T11:39:05;12.70;99.90
37158;DHT22;23050;51.776;22.638;2024-02-26T11:41:32;13.00;99.90
37158;DHT22;23050;51.776;22.638;2024-02-26T11:44:00;13.10;99.90
37158;DHT22;23050;51.776;22.638;2024-02-26T11:46:38;13.10;99.90
37158;DHT22;23050;51.776;22.638;2024-02-26T11:51:54;13.10;99.90
37158;DHT22;23050;51.776;22.638;2024-02-26T11:59:52;13.20;99.90
37158;DHT22;23050;51.776;22.638;2024-02-26T12:02:40;13.20;99.90
37158;DHT22;23050;51.776;22.638;2024-02-26T12:05:10;13.10;99.90
37158;DHT22;23050;51.776;22.638;2024-02-26T12:07:40;13.00;99.90
37158;DHT22;23050;51.776;22.638;2024-02-26T12:10:35;12.80;99.90
37158;DHT22;23050;51.776;22.638;2024-02-26T12:13:29;12.60;99.90
37158;DHT22;23050;51.776;22.638;2024-02-26T12:15:56;12.60;99.90
37158;DHT22;23050;51.776;22.638;2024-02-26T12:18:23;12.50;99.90
37158;DHT22;23050;51.776;22.638;2024-02-26T12:21:02;12.50;99.90
37158;DHT22;23050;51.776;22.638;2024-02-26T12:23:28;12.30;99.90
37158;DHT22;23050;51.776;22.638;2024-02-26T12:25:58;12.20;99.90
37158;DHT22;23050;51.776;22.638;2024-02-26T12:28:28;12.20;99.90
37158;DHT22;23050;51.776;22.638;2024-02-26T12:30:54;12.10;99.90
37158;DHT22;23050;51.776;22.638;2024-02-26T12:33:20;12.10;99.90
37158;DHT22;23050;51.776;22.638;2024-02-26T12:35:46;12.00;99.90
37158;DHT22;23050;51.776;22.638;2024-02-26T12:38:14;12.00;99.90
37158;DHT22;23050;51.776;22.638;2024-02-26T12:40:40;11.90;99.90
37158;DHT22;23050;51.776;22.638;2024-02-26T12:43:07;11.80;99.90
37158;DHT22;23050;51.776;22.638;2024-02-26T12:45:40;11.70;99.90
37158;DHT22;23050;51.776;22.638;2024-02-26T12:48:06;11.70;99.90
37158;DHT22;23050;51.776;22.638;2024-02-26T12:50:32;11.60;99.90
37158;DHT22;23050;51.776;22.638;2024-02-26T12:52:59;11.60;99.90
37158;DHT22;23050;51.776;22.638;2024-02-26T12:55:24;11.50;99.90
37158;DHT22;23050;51.776;22.638;2024-02-26T12:57:52;11.50;99.90
37158;DHT22;23050;51.776;22.638;2024-02-26T13:00:26;11.50;99.90
37158;DHT22;23050;51.776;22.638;2024-02-26T13:02:53;11.50;99.90
37158;DHT22;23050;51.776;22.638;2024-02-26T13:05:21;11.50;99.90
37158;DHT22;23050;51.776;22.638;2024-02-26T13:07:48;11.50;99.90
37158;DHT22;23050;51.776;22.638;2024-02-26T13:10:14;11.50;99.90
37158;DHT22;23050;51.776;22.638;2024-02-26T13:12:48;11.50;99.90
37158;DHT22;23050;51.776;22.638;2024-02-26T13:15:20;11.50;99.90
37158;DHT22;23050;51.776;22.638;2024-02-26T13:17:46;11.50;99.90
37158;DHT22;23050;51.776;22.638;2024-02-26T13:20:13;11.50;99.90
37158;DHT22;23050;51.776;22.638;2024-02-26T13:22:40;11.50;99.90
37158;DHT22;23050;51.776;22.638;2024-02-26T13:25:06;11.60;99.90
37158;DHT22;23050;51.776;22.638;2024-02-26T13:27:33;11.50;99.90
37158;DHT22;23050;51.776;22.638;2024-02-26T13:30:08;11.50;99.90
37158;DHT22;23050;51.776;22.638;2024-02-26T13:32:35;11.50;99.90
37158;DHT22;23050;51.776;22.638;2024-02-26T13:35:13;11.60;99.90
37158;DHT22;23050;51.776;22.638;2024-02-26T13:37:40;11.60;99.90
37158;DHT22;23050;51.776;22.638;2024-02-26T13:40:10;11.60;99.90
37158;DHT22;23050;51.776;22.638;2024-02-26T13:42:37;11.60;99.90
37158;DHT22;23050;51.776;22.638;2024-02-26T13:45:04;11.60;99.90
37158;DHT22;23050;51.776;22.638;2024-02-26T13:47:32;11.60;99.90
37158;DHT22;23050;51.776;22.638;2024-02-26T13:49:58;11.60;99.90
37158;DHT22;23050;51.776;22.638;2024-02-26T13:52:25;11.60;99.90
37158;DHT22;23050;51.776;22.638;2024-02-26T13:54:51;11.60;99.90
37158;DHT22;23050;51.776;22.638;2024-02-26T13:57:17;11.70;99.90
37158;DHT22;23050;51.776;22.638;2024-02-26T13:59:43;11.60;99.90
37158;DHT22;23050;51.776;22.638;2024-02-26T14:02:09;11.60;99.90
37158;DHT22;23050;51.776;22.638;2024-02-26T14:04:36;11.60;99.90
37158;DHT22;23050;51.776;22.638;2024-02-26T14:07:02;11.60;99.90
37158;DHT22;23050;51.776;22.638;2024-02-26T14:09:29;11.60;99.90
37158;DHT22;23050;51.776;22.638;2024-02-26T14:11:54;11.60;99.90
37158;DHT22;23050;51.776;22.638;2024-02-26T14:14:20;11.60;99.90
37158;DHT22;23050;51.776;22.638;2024-02-26T14:16:46;11.70;99.90
37158;DHT22;23050;51.776;22.638;2024-02-26T14:19:11;11.70;99.90
37158;DHT22;23050;51.776;22.638;2024-02-26T14:21:37;11.70;99.90
37158;DHT22;23050;51.776;22.638;2024-02-26T14:24:03;11.70;99.90
37158;DHT22;23050;51.776;22.638;2024-02-26T14:26:29;11.70;99.90
37158;DHT22;23050;51.776;22.638;2024-02-26T14:28:54;11.70;99.90
37158;DHT22;23050;51.776;22.638;2024-02-26T14:31:21;11.60;99.90
37158;DHT22;23050;51.776;22.638;2024-02-26T14:33:47;11.60;99.90
37158;DHT22;23050;51.776;22.638;2024-02-26T14:36:13;11.60;99.90
37158;DHT22;23050;51.776;22.638;2024-02-26T14:38:39;11.60;99.90
37158;DHT22;23050;51.776;22.638;2024-02-26T14:41:05;11.60;99.90
37158;DHT22;23050;51.776;22.638;2024-02-26T14:43:31;11.60;99.90
37158;DHT22;23050;51.776;22.638;2024-02-26T14:46:00;11.60;99.90
37158;DHT22;23050;51.776;22.638;2024-02-26T14:48:26;11.60;99.90
37158;DHT22;23050;51.776;22.638;2024-02-26T14:50:51;11.60;99.90
37158;DHT22;23050;51.776;22.638;2024-02-26T14:53:17;11.60;99.90
37158;DHT22;23050;51.776;22.638;2024-02-26T14:55:43;11.60;99.90
37158;DHT22;23050;51.776;22.638;2024-02-26T14:58:09;11.60;99.90
37158;DHT22;23050;51.776;22.638;2024-02-26T15:00:36;11.60;99.90
37158;DHT22;23050;51.776;22.638;2024-02-26T15:03:02;11.60;99.90
37158;DHT22;23050;51.776;22.638;2024-02-26T15:05:28;11.60;99.90
37158;DHT22;23050;51.776;22.638;2024-02-26T15:07:54;11.60;99.90
37158;DHT22;23050;51.776;22.638;2024-02-26T15:10:20;11.60;99.90
37158;DHT22;23050;51.776;22.638;2024-02-26T15:12:45;11.60;99.90
37158;DHT22;23050;51.776;22.638;2024-02-26T15:15:11;11.60;99.90
37158;DHT22;23050;51.776;22.638;2024-02-26T15:17:37;11.60;99.90
37158;DHT22;23050;51.776;22.638;2024-02-26T15:20:03;11.60;99.90
37158;DHT22;23050;51.776;22.638;2024-02-26T15:22:28;11.60;99.90
37158;DHT22;23050;51.776;22.638;2024-02-26T15:24:54;11.60;99.90
37158;DHT22;23050;51.776;22.638;2024-02-26T15:27:20;11.50;99.90